sensor_id;sensor_type;location;lat;lon;timestamp;P1;durP1;ratioP1;P2;durP2;ratioP2
38427;SDS011;24211;49.980;19.776;2023-05-10T00:00:03;10.07;;;5.05;;
38427;SDS011;24211;49.980;19.776;2023-05-10T00:02:58;8.00;;;4.28;;
38427;SDS011;24211;49.980;19.776;2023-05-10T00:05:26;10.35;;;4.68;;
38427;SDS011;24211;49.980;19.776;2023-05-10T00:07:53;8.88;;;4.65;;
38427;SDS011;24211;49.980;19.776;2023-05-10T00:10:20;8.88;;;4.25;;
38427;SDS011;24211;49.980;19.776;2023-05-10T00:12:48;9.45;;;4.50;;
38427;SDS011;24211;49.980;19.776;2023-05-10T00:15:15;9.18;;;4.40;;
38427;SDS011;24211;49.980;19.776;2023-05-10T00:17:42;8.75;;;4.55;;
38427;SDS011;24211;49.980;19.776;2023-05-10T00:20:10;8.60;;;4.22;;
38427;SDS011;24211;49.980;19.776;2023-05-10T00:22:38;8.60;;;4.53;;
38427;SDS011;24211;49.980;19.776;2023-05-10T00:25:05;10.52;;;4.80;;
38427;SDS011;24211;49.980;19.776;2023-05-10T00:27:34;9.27;;;4.32;;
38427;SDS011;24211;49.980;19.776;2023-05-10T00:30:01;11.30;;;5.00;;
38427;SDS011;24211;49.980;19.776;2023-05-10T00:32:28;10.93;;;4.65;;
38427;SDS011;24211;49.980;19.776;2023-05-10T00:34:57;9.80;;;4.43;;
38427;SDS011;24211;49.980;19.776;2023-05-10T00:37:26;8.23;;;4.20;;
38427;SDS011;24211;49.980;19.776;2023-05-10T00:39:54;9.25;;;4.15;;
38427;SDS011;24211;49.980;19.776;2023-05-10T00:42:21;9.40;;;4.35;;
38427;SDS011;24211;49.980;19.776;2023-05-10T00:44:52;10.57;;;4.43;;
38427;SDS011;24211;49.980;19.776;2023-05-10T00:47:19;8.82;;;4.35;;
38427;SDS011;24211;49.980;19.776;2023-05-10T00:49:46;8.80;;;4.30;;
38427;SDS011;24211;49.980;19.776;2023-05-10T00:52:14;7.97;;;3.90;;
38427;SDS011;24211;49.980;19.776;2023-05-10T00:54:41;7.78;;;3.83;;
38427;SDS011;24211;49.980;19.776;2023-05-10T00:57:10;8.70;;;3.88;;
38427;SDS011;24211;49.980;19.776;2023-05-10T00:59:37;8.45;;;3.90;;
38427;SDS011;24211;49.980;19.776;2023-05-10T01:02:05;8.85;;;3.85;;
38427;SDS011;24211;49.980;19.776;2023-05-10T01:04:33;8.70;;;4.07;;
38427;SDS011;24211;49.980;19.776;2023-05-10T01:07:02;7.45;;;3.78;;
38427;SDS011;24211;49.980;19.776;2023-05-10T01:09:29;8.65;;;3.88;;
38427;SDS011;24211;49.980;19.776;2023-05-10T01:11:58;7.30;;;3.90;;
38427;SDS011;24211;49.980;19.776;2023-05-10T01:14:28;8.02;;;3.75;;
38427;SDS011;24211;49.980;19.776;2023-05-10T01:16:56;9.07;;;3.72;;
38427;SDS011;24211;49.980;19.776;2023-05-10T01:19:25;7.40;;;3.67;;
38427;SDS011;24211;49.980;19.776;2023-05-10T01:22:16;8.00;;;3.55;;
38427;SDS011;24211;49.980;19.776;2023-05-10T01:34:19;6.53;;;3.25;;
38427;SDS011;24211;49.980;19.776;2023-05-10T01:36:55;8.95;;;3.42;;
38427;SDS011;24211;49.980;19.776;2023-05-10T01:39:47;7.45;;;3.85;;
38427;SDS011;24211;49.980;19.776;2023-05-10T01:42:28;8.30;;;3.63;;
38427;SDS011;24211;49.980;19.776;2023-05-10T01:45:11;7.25;;;3.58;;
38427;SDS011;24211;49.980;19.776;2023-05-10T01:48:11;6.70;;;3.38;;
38427;SDS011;24211;49.980;19.776;2023-05-10T01:50:43;8.18;;;3.78;;
38427;SDS011;24211;49.980;19.776;2023-05-10T01:53:13;8.68;;;3.83;;
38427;SDS011;24211;49.980;19.776;2023-05-10T01:55:47;8.02;;;3.50;;
38427;SDS011;24211;49.980;19.776;2023-05-10T01:58:29;7.97;;;3.55;;
38427;SDS011;24211;49.980;19.776;2023-05-10T02:01:03;7.70;;;3.42;;
38427;SDS011;24211;49.980;19.776;2023-05-10T02:03:33;7.43;;;3.63;;
38427;SDS011;24211;49.980;19.776;2023-05-10T02:06:06;7.60;;;3.65;;
38427;SDS011;24211;49.980;19.776;2023-05-10T02:08:36;6.88;;;3.35;;
38427;SDS011;24211;49.980;19.776;2023-05-10T02:11:06;8.48;;;3.78;;
38427;SDS011;24211;49.980;19.776;2023-05-10T02:13:35;9.20;;;3.90;;
38427;SDS011;24211;49.980;19.776;2023-05-10T02:16:05;8.38;;;3.65;;
38427;SDS011;24211;49.980;19.776;2023-05-10T02:18:34;6.95;;;3.30;;
38427;SDS011;24211;49.980;19.776;2023-05-10T02:21:03;9.52;;;3.50;;
38427;SDS011;24211;49.980;19.776;2023-05-10T02:23:31;7.43;;;3.70;;
38427;SDS011;24211;49.980;19.776;2023-05-10T02:26:01;7.45;;;3.72;;
38427;SDS011;24211;49.980;19.776;2023-05-10T02:28:30;7.90;;;3.70;;
38427;SDS011;24211;49.980;19.776;2023-05-10T02:31:00;7.43;;;3.45;;
38427;SDS011;24211;49.980;19.776;2023-05-10T02:33:29;8.38;;;4.00;;
38427;SDS011;24211;49.980;19.776;2023-05-10T02:35:58;7.57;;;3.53;;
38427;SDS011;24211;49.980;19.776;2023-05-10T02:38:28;7.25;;;3.63;;
38427;SDS011;24211;49.980;19.776;2023-05-10T02:40:59;6.68;;;3.67;;
38427;SDS011;24211;49.980;19.776;2023-05-10T02:43:28;7.32;;;3.55;;
38427;SDS011;24211;49.980;19.776;2023-05-10T02:45:58;10.00;;;3.92;;
38427;SDS011;24211;49.980;19.776;2023-05-10T02:48:26;8.60;;;3.88;;
38427;SDS011;24211;49.980;19.776;2023-05-10T02:50:56;9.25;;;3.78;;
38427;SDS011;24211;49.980;19.776;2023-05-10T02:53:33;8.90;;;3.83;;
38427;SDS011;24211;49.980;19.776;2023-05-10T02:56:05;7.70;;;3.80;;
38427;SDS011;24211;49.980;19.776;2023-05-10T02:58:47;8.45;;;4.28;;
38427;SDS011;24211;49.980;19.776;2023-05-10T03:01:14;8.32;;;3.60;;
38427;SDS011;24211;49.980;19.776;2023-05-10T03:03:42;7.35;;;3.40;;
38427;SDS011;24211;49.980;19.776;2023-05-10T03:06:09;7.22;;;3.83;;
38427;SDS011;24211;49.980;19.776;2023-05-10T03:08:37;8.82;;;4.07;;
38427;SDS011;24211;49.980;19.776;2023-05-10T03:17:00;8.65;;;4.03;;
38427;SDS011;24211;49.980;19.776;2023-05-10T03:20:09;10.93;;;4.47;;
38427;SDS011;24211;49.980;19.776;2023-05-10T03:22:56;10.32;;;4.30;;
38427;SDS011;24211;49.980;19.776;2023-05-10T03:25:54;8.68;;;4.28;;
38427;SDS011;24211;49.980;19.776;2023-05-10T03:28:23;9.00;;;4.03;;
38427;SDS011;24211;49.980;19.776;2023-05-10T03:30:55;8.07;;;4.05;;
38427;SDS011;24211;49.980;19.776;2023-05-10T03:33:24;9.40;;;3.83;;
38427;SDS011;24211;49.980;19.776;2023-05-10T03:35:52;9.73;;;4.10;;
38427;SDS011;24211;49.980;19.776;2023-05-10T03:38:19;9.70;;;4.55;;
38427;SDS011;24211;49.980;19.776;2023-05-10T03:40:47;10.30;;;4.25;;
38427;SDS011;24211;49.980;19.776;2023-05-10T03:43:14;10.27;;;4.72;;
38427;SDS011;24211;49.980;19.776;2023-05-10T03:45:41;13.13;;;4.80;;
38427;SDS011;24211;49.980;19.776;2023-05-10T03:48:09;8.93;;;4.40;;
38427;SDS011;24211;49.980;19.776;2023-05-10T03:50:36;8.95;;;4.25;;
38427;SDS011;24211;49.980;19.776;2023-05-10T03:53:03;9.80;;;4.28;;
38427;SDS011;24211;49.980;19.776;2023-05-10T03:55:32;8.52;;;4.07;;
38427;SDS011;24211;49.980;19.776;2023-05-10T03:58:02;9.30;;;4.50;;
38427;SDS011;24211;49.980;19.776;2023-05-10T04:00:30;9.95;;;4.95;;
38427;SDS011;24211;49.980;19.776;2023-05-10T04:02:59;9.75;;;4.40;;
38427;SDS011;24211;49.980;19.776;2023-05-10T04:05:27;9.57;;;4.50;;
38427;SDS011;24211;49.980;19.776;2023-05-10T04:07:55;9.35;;;4.25;;
38427;SDS011;24211;49.980;19.776;2023-05-10T04:10:22;9.80;;;4.70;;
38427;SDS011;24211;49.980;19.776;2023-05-10T04:12:49;9.82;;;4.45;;
38427;SDS011;24211;49.980;19.776;2023-05-10T04:15:17;9.88;;;4.88;;
38427;SDS011;24211;49.980;19.776;2023-05-10T04:17:44;11.25;;;4.68;;
38427;SDS011;24211;49.980;19.776;2023-05-10T04:20:12;9.70;;;4.72;;
38427;SDS011;24211;49.980;19.776;2023-05-10T04:22:40;11.20;;;4.70;;
38427;SDS011;24211;49.980;19.776;2023-05-10T04:25:08;10.95;;;4.80;;
38427;SDS011;24211;49.980;19.776;2023-05-10T04:27:35;11.00;;;4.90;;
38427;SDS011;24211;49.980;19.776;2023-05-10T04:30:04;10.68;;;4.38;;
38427;SDS011;24211;49.980;19.776;2023-05-10T04:32:32;12.70;;;4.65;;
38427;SDS011;24211;49.980;19.776;2023-05-10T04:35:00;11.90;;;4.75;;
38427;SDS011;24211;49.980;19.776;2023-05-10T04:37:31;10.10;;;5.03;;
38427;SDS011;24211;49.980;19.776;2023-05-10T04:39:58;9.52;;;4.50;;
38427;SDS011;24211;49.980;19.776;2023-05-10T04:42:26;10.02;;;4.72;;
38427;SDS011;24211;49.980;19.776;2023-05-10T04:44:54;8.65;;;4.60;;
38427;SDS011;24211;49.980;19.776;2023-05-10T04:47:21;10.10;;;4.63;;
38427;SDS011;24211;49.980;19.776;2023-05-10T04:49:48;9.95;;;4.55;;
38427;SDS011;24211;49.980;19.776;2023-05-10T04:52:15;9.63;;;4.80;;
38427;SDS011;24211;49.980;19.776;2023-05-10T04:54:44;12.57;;;4.80;;
38427;SDS011;24211;49.980;19.776;2023-05-10T04:57:11;11.70;;;5.13;;
38427;SDS011;24211;49.980;19.776;2023-05-10T04:59:39;13.43;;;5.57;;
38427;SDS011;24211;49.980;19.776;2023-05-10T05:02:06;12.88;;;5.50;;
38427;SDS011;24211;49.980;19.776;2023-05-10T05:04:34;10.88;;;5.40;;
38427;SDS011;24211;49.980;19.776;2023-05-10T05:07:01;10.73;;;5.03;;
38427;SDS011;24211;49.980;19.776;2023-05-10T05:09:28;12.07;;;5.78;;
38427;SDS011;24211;49.980;19.776;2023-05-10T05:11:55;12.40;;;5.43;;
38427;SDS011;24211;49.980;19.776;2023-05-10T05:14:23;10.73;;;5.30;;
38427;SDS011;24211;49.980;19.776;2023-05-10T05:16:52;11.50;;;6.00;;
38427;SDS011;24211;49.980;19.776;2023-05-10T05:19:19;11.57;;;5.80;;
38427;SDS011;24211;49.980;19.776;2023-05-10T05:21:47;12.90;;;5.75;;
38427;SDS011;24211;49.980;19.776;2023-05-10T05:24:14;10.65;;;5.43;;
38427;SDS011;24211;49.980;19.776;2023-05-10T05:26:41;12.23;;;5.50;;
38427;SDS011;24211;49.980;19.776;2023-05-10T05:29:09;13.77;;;5.40;;
38427;SDS011;24211;49.980;19.776;2023-05-10T05:31:36;13.77;;;5.53;;
38427;SDS011;24211;49.980;19.776;2023-05-10T05:34:03;10.82;;;5.43;;
38427;SDS011;24211;49.980;19.776;2023-05-10T05:36:31;12.18;;;5.70;;
38427;SDS011;24211;49.980;19.776;2023-05-10T05:38:58;12.70;;;5.72;;
38427;SDS011;24211;49.980;19.776;2023-05-10T05:41:25;10.73;;;5.25;;
38427;SDS011;24211;49.980;19.776;2023-05-10T05:43:53;11.82;;;4.82;;
38427;SDS011;24211;49.980;19.776;2023-05-10T05:46:20;10.35;;;4.80;;
38427;SDS011;24211;49.980;19.776;2023-05-10T05:48:47;10.85;;;5.00;;
38427;SDS011;24211;49.980;19.776;2023-05-10T05:51:15;8.48;;;4.60;;
38427;SDS011;24211;49.980;19.776;2023-05-10T05:53:42;10.40;;;4.45;;
38427;SDS011;24211;49.980;19.776;2023-05-10T05:56:10;11.23;;;4.85;;
38427;SDS011;24211;49.980;19.776;2023-05-10T05:58:37;9.80;;;4.53;;
38427;SDS011;24211;49.980;19.776;2023-05-10T06:01:04;10.63;;;4.43;;
38427;SDS011;24211;49.980;19.776;2023-05-10T06:03:31;8.90;;;4.55;;
38427;SDS011;24211;49.980;19.776;2023-05-10T06:05:59;9.45;;;4.53;;
38427;SDS011;24211;49.980;19.776;2023-05-10T06:08:26;9.73;;;4.20;;
38427;SDS011;24211;49.980;19.776;2023-05-10T06:10:54;10.02;;;4.50;;
38427;SDS011;24211;49.980;19.776;2023-05-10T06:13:21;8.13;;;3.83;;
38427;SDS011;24211;49.980;19.776;2023-05-10T06:15:48;11.10;;;4.25;;
38427;SDS011;24211;49.980;19.776;2023-05-10T06:18:15;8.48;;;4.28;;
38427;SDS011;24211;49.980;19.776;2023-05-10T06:20:43;8.90;;;4.07;;
38427;SDS011;24211;49.980;19.776;2023-05-10T06:23:10;8.50;;;3.67;;
38427;SDS011;24211;49.980;19.776;2023-05-10T06:25:38;9.48;;;3.42;;
38427;SDS011;24211;49.980;19.776;2023-05-10T06:28:05;7.55;;;3.88;;
38427;SDS011;24211;49.980;19.776;2023-05-10T06:30:32;7.85;;;3.83;;
38427;SDS011;24211;49.980;19.776;2023-05-10T06:32:59;7.78;;;3.22;;
38427;SDS011;24211;49.980;19.776;2023-05-10T06:35:27;6.32;;;3.13;;
38427;SDS011;24211;49.980;19.776;2023-05-10T06:37:55;8.18;;;3.30;;
38427;SDS011;24211;49.980;19.776;2023-05-10T06:40:22;8.40;;;3.50;;
38427;SDS011;24211;49.980;19.776;2023-05-10T06:42:50;7.60;;;3.15;;
38427;SDS011;24211;49.980;19.776;2023-05-10T06:45:18;6.47;;;3.20;;
38427;SDS011;24211;49.980;19.776;2023-05-10T06:47:45;5.93;;;2.78;;
38427;SDS011;24211;49.980;19.776;2023-05-10T06:50:13;6.95;;;3.30;;
38427;SDS011;24211;49.980;19.776;2023-05-10T06:52:40;9.88;;;3.50;;
38427;SDS011;24211;49.980;19.776;2023-05-10T06:55:08;7.65;;;3.25;;
38427;SDS011;24211;49.980;19.776;2023-05-10T06:57:36;6.85;;;3.00;;
38427;SDS011;24211;49.980;19.776;2023-05-10T07:00:04;7.43;;;2.97;;
38427;SDS011;24211;49.980;19.776;2023-05-10T07:02:32;7.72;;;3.70;;
38427;SDS011;24211;49.980;19.776;2023-05-10T07:05:00;7.05;;;3.05;;
38427;SDS011;24211;49.980;19.776;2023-05-10T07:07:29;9.73;;;2.78;;
38427;SDS011;24211;49.980;19.776;2023-05-10T07:09:56;7.35;;;3.00;;
38427;SDS011;24211;49.980;19.776;2023-05-10T07:12:24;8.40;;;2.70;;
38427;SDS011;24211;49.980;19.776;2023-05-10T07:14:52;8.13;;;3.35;;
38427;SDS011;24211;49.980;19.776;2023-05-10T07:17:19;5.53;;;2.65;;
38427;SDS011;24211;49.980;19.776;2023-05-10T07:19:47;6.82;;;3.00;;
38427;SDS011;24211;49.980;19.776;2023-05-10T07:22:17;6.97;;;2.70;;
38427;SDS011;24211;49.980;19.776;2023-05-10T07:24:44;8.48;;;3.40;;
38427;SDS011;24211;49.980;19.776;2023-05-10T07:27:11;6.25;;;2.60;;
38427;SDS011;24211;49.980;19.776;2023-05-10T07:29:39;6.07;;;2.97;;
38427;SDS011;24211;49.980;19.776;2023-05-10T07:32:07;8.43;;;3.00;;
38427;SDS011;24211;49.980;19.776;2023-05-10T07:34:34;7.63;;;2.75;;
38427;SDS011;24211;49.980;19.776;2023-05-10T07:37:01;5.82;;;2.58;;
38427;SDS011;24211;49.980;19.776;2023-05-10T07:39:29;8.52;;;3.00;;
38427;SDS011;24211;49.980;19.776;2023-05-10T07:41:56;7.57;;;3.67;;
38427;SDS011;24211;49.980;19.776;2023-05-10T07:44:24;5.55;;;2.72;;
38427;SDS011;24211;49.980;19.776;2023-05-10T07:46:51;8.80;;;3.13;;
38427;SDS011;24211;49.980;19.776;2023-05-10T07:49:19;5.25;;;2.83;;
38427;SDS011;24211;49.980;19.776;2023-05-10T07:51:46;7.50;;;2.55;;
38427;SDS011;24211;49.980;19.776;2023-05-10T07:54:13;8.23;;;3.10;;
38427;SDS011;24211;49.980;19.776;2023-05-10T07:56:41;6.30;;;2.70;;
38427;SDS011;24211;49.980;19.776;2023-05-10T07:59:15;6.40;;;3.00;;
38427;SDS011;24211;49.980;19.776;2023-05-10T08:01:44;6.35;;;2.90;;
38427;SDS011;24211;49.980;19.776;2023-05-10T08:04:11;5.30;;;2.40;;
38427;SDS011;24211;49.980;19.776;2023-05-10T08:06:39;5.97;;;2.50;;
38427;SDS011;24211;49.980;19.776;2023-05-10T08:09:08;7.18;;;3.08;;
38427;SDS011;24211;49.980;19.776;2023-05-10T08:11:35;5.70;;;2.85;;
38427;SDS011;24211;49.980;19.776;2023-05-10T08:14:03;5.60;;;2.78;;
38427;SDS011;24211;49.980;19.776;2023-05-10T08:16:30;6.45;;;3.10;;
38427;SDS011;24211;49.980;19.776;2023-05-10T08:18:59;6.68;;;2.95;;
38427;SDS011;24211;49.980;19.776;2023-05-10T08:21:26;7.35;;;2.53;;
38427;SDS011;24211;49.980;19.776;2023-05-10T08:23:54;7.10;;;2.50;;
38427;SDS011;24211;49.980;19.776;2023-05-10T08:26:21;6.10;;;2.78;;
38427;SDS011;24211;49.980;19.776;2023-05-10T08:28:48;4.82;;;2.45;;
38427;SDS011;24211;49.980;19.776;2023-05-10T08:31:16;6.03;;;2.33;;
38427;SDS011;24211;49.980;19.776;2023-05-10T08:33:43;5.55;;;2.80;;
38427;SDS011;24211;49.980;19.776;2023-05-10T08:36:11;5.53;;;2.53;;
38427;SDS011;24211;49.980;19.776;2023-05-10T08:38:40;5.35;;;2.40;;
38427;SDS011;24211;49.980;19.776;2023-05-10T08:41:08;4.05;;;2.05;;
38427;SDS011;24211;49.980;19.776;2023-05-10T08:43:37;6.80;;;2.20;;
38427;SDS011;24211;49.980;19.776;2023-05-10T08:46:05;7.05;;;2.13;;
38427;SDS011;24211;49.980;19.776;2023-05-10T08:48:36;4.40;;;1.88;;
38427;SDS011;24211;49.980;19.776;2023-05-10T08:51:05;5.07;;;2.08;;
38427;SDS011;24211;49.980;19.776;2023-05-10T08:53:34;5.35;;;2.30;;
38427;SDS011;24211;49.980;19.776;2023-05-10T08:56:04;5.22;;;2.05;;
38427;SDS011;24211;49.980;19.776;2023-05-10T08:58:32;5.38;;;2.00;;
38427;SDS011;24211;49.980;19.776;2023-05-10T09:00:59;3.85;;;1.65;;
38427;SDS011;24211;49.980;19.776;2023-05-10T09:03:27;4.82;;;1.90;;
38427;SDS011;24211;49.980;19.776;2023-05-10T09:05:55;3.90;;;1.83;;
38427;SDS011;24211;49.980;19.776;2023-05-10T09:08:23;3.47;;;1.70;;
38427;SDS011;24211;49.980;19.776;2023-05-10T09:10:54;3.28;;;1.65;;
38427;SDS011;24211;49.980;19.776;2023-05-10T09:13:23;3.72;;;1.55;;
38427;SDS011;24211;49.980;19.776;2023-05-10T09:15:51;3.47;;;1.52;;
38427;SDS011;24211;49.980;19.776;2023-05-10T09:18:20;2.78;;;1.35;;
38427;SDS011;24211;49.980;19.776;2023-05-10T09:20:48;3.13;;;1.73;;
38427;SDS011;24211;49.980;19.776;2023-05-10T09:23:15;3.35;;;1.40;;
38427;SDS011;24211;49.980;19.776;2023-05-10T09:25:43;2.80;;;1.48;;
38427;SDS011;24211;49.980;19.776;2023-05-10T09:28:10;3.28;;;1.65;;
38427;SDS011;24211;49.980;19.776;2023-05-10T09:30:39;2.85;;;1.33;;
38427;SDS011;24211;49.980;19.776;2023-05-10T09:33:06;4.10;;;1.70;;
38427;SDS011;24211;49.980;19.776;2023-05-10T09:35:34;2.60;;;1.25;;
38427;SDS011;24211;49.980;19.776;2023-05-10T09:38:03;3.55;;;1.55;;
38427;SDS011;24211;49.980;19.776;2023-05-10T09:40:32;4.60;;;1.58;;
38427;SDS011;24211;49.980;19.776;2023-05-10T09:43:00;2.75;;;1.23;;
38427;SDS011;24211;49.980;19.776;2023-05-10T09:45:31;3.38;;;1.45;;
38427;SDS011;24211;49.980;19.776;2023-05-10T09:48:04;2.88;;;1.40;;
38427;SDS011;24211;49.980;19.776;2023-05-10T09:50:32;2.95;;;1.40;;
38427;SDS011;24211;49.980;19.776;2023-05-10T09:53:01;2.90;;;1.38;;
38427;SDS011;24211;49.980;19.776;2023-05-10T09:55:41;3.65;;;1.52;;
38427;SDS011;24211;49.980;19.776;2023-05-10T09:58:15;4.13;;;1.40;;
38427;SDS011;24211;49.980;19.776;2023-05-10T10:00:43;4.15;;;1.58;;
38427;SDS011;24211;49.980;19.776;2023-05-10T10:03:15;2.83;;;1.27;;
38427;SDS011;24211;49.980;19.776;2023-05-10T10:05:47;2.80;;;1.35;;
38427;SDS011;24211;49.980;19.776;2023-05-10T10:08:15;3.00;;;1.40;;
38427;SDS011;24211;49.980;19.776;2023-05-10T10:10:44;3.10;;;1.33;;
38427;SDS011;24211;49.980;19.776;2023-05-10T10:13:13;4.15;;;1.50;;
38427;SDS011;24211;49.980;19.776;2023-05-10T10:15:42;3.78;;;1.42;;
38427;SDS011;24211;49.980;19.776;2023-05-10T10:18:13;2.67;;;1.40;;
38427;SDS011;24211;49.980;19.776;2023-05-10T10:20:42;2.45;;;1.40;;
38427;SDS011;24211;49.980;19.776;2023-05-10T10:23:09;5.15;;;1.17;;
38427;SDS011;24211;49.980;19.776;2023-05-10T10:25:37;2.70;;;1.33;;
38427;SDS011;24211;49.980;19.776;2023-05-10T10:28:16;3.88;;;1.23;;
38427;SDS011;24211;49.980;19.776;2023-05-10T10:31:17;2.92;;;1.23;;
38427;SDS011;24211;49.980;19.776;2023-05-10T10:34:10;2.97;;;1.30;;
38427;SDS011;24211;49.980;19.776;2023-05-10T10:36:56;2.60;;;1.10;;
38427;SDS011;24211;49.980;19.776;2023-05-10T10:39:30;5.43;;;1.65;;
38427;SDS011;24211;49.980;19.776;2023-05-10T10:41:58;2.40;;;1.30;;
38427;SDS011;24211;49.980;19.776;2023-05-10T11:00:18;2.22;;;1.20;;
38427;SDS011;24211;49.980;19.776;2023-05-10T11:03:12;3.20;;;1.52;;
38427;SDS011;24211;49.980;19.776;2023-05-10T11:05:42;3.53;;;1.38;;
38427;SDS011;24211;49.980;19.776;2023-05-10T11:13:46;4.90;;;1.60;;
38427;SDS011;24211;49.980;19.776;2023-05-10T11:18:51;4.57;;;1.40;;
38427;SDS011;24211;49.980;19.776;2023-05-10T11:21:30;5.65;;;1.50;;
38427;SDS011;24211;49.980;19.776;2023-05-10T11:24:00;2.85;;;1.40;;
38427;SDS011;24211;49.980;19.776;2023-05-10T11:26:34;3.53;;;1.48;;
38427;SDS011;24211;49.980;19.776;2023-05-10T11:29:02;3.78;;;1.60;;
38427;SDS011;24211;49.980;19.776;2023-05-10T11:31:31;3.53;;;1.73;;
38427;SDS011;24211;49.980;19.776;2023-05-10T11:34:00;3.00;;;1.55;;
38427;SDS011;24211;49.980;19.776;2023-05-10T11:36:37;3.13;;;1.50;;
38427;SDS011;24211;49.980;19.776;2023-05-10T11:39:05;4.10;;;1.50;;
38427;SDS011;24211;49.980;19.776;2023-05-10T11:41:32;3.05;;;1.58;;
38427;SDS011;24211;49.980;19.776;2023-05-10T11:44:00;2.92;;;1.50;;
38427;SDS011;24211;49.980;19.776;2023-05-10T11:46:28;3.33;;;1.73;;
38427;SDS011;24211;49.980;19.776;2023-05-10T11:48:57;4.18;;;1.70;;
38427;SDS011;24211;49.980;19.776;2023-05-10T11:51:32;3.45;;;1.50;;
38427;SDS011;24211;49.980;19.776;2023-05-10T11:54:06;2.60;;;1.35;;
38427;SDS011;24211;49.980;19.776;2023-05-10T11:56:38;3.80;;;1.60;;
38427;SDS011;24211;49.980;19.776;2023-05-10T11:59:07;3.03;;;1.73;;
38427;SDS011;24211;49.980;19.776;2023-05-10T12:01:35;4.15;;;1.40;;
38427;SDS011;24211;49.980;19.776;2023-05-10T12:04:03;2.92;;;1.50;;
38427;SDS011;24211;49.980;19.776;2023-05-10T12:06:31;3.30;;;1.50;;
38427;SDS011;24211;49.980;19.776;2023-05-10T12:09:07;2.97;;;1.42;;
38427;SDS011;24211;49.980;19.776;2023-05-10T12:11:36;6.53;;;1.88;;
38427;SDS011;24211;49.980;19.776;2023-05-10T12:14:10;3.08;;;1.50;;
38427;SDS011;24211;49.980;19.776;2023-05-10T12:16:37;4.15;;;1.60;;
38427;SDS011;24211;49.980;19.776;2023-05-10T12:19:05;4.05;;;1.70;;
38427;SDS011;24211;49.980;19.776;2023-05-10T12:21:32;4.72;;;1.77;;
38427;SDS011;24211;49.980;19.776;2023-05-10T12:24:03;3.58;;;1.70;;
38427;SDS011;24211;49.980;19.776;2023-05-10T12:26:33;3.50;;;1.60;;
38427;SDS011;24211;49.980;19.776;2023-05-10T12:29:12;2.40;;;1.33;;
38427;SDS011;24211;49.980;19.776;2023-05-10T12:31:50;3.42;;;1.52;;
38427;SDS011;24211;49.980;19.776;2023-05-10T12:34:25;2.42;;;1.27;;
38427;SDS011;24211;49.980;19.776;2023-05-10T12:36:59;3.55;;;1.60;;
38427;SDS011;24211;49.980;19.776;2023-05-10T12:39:39;3.10;;;1.60;;
38427;SDS011;24211;49.980;19.776;2023-05-10T12:42:09;3.83;;;1.58;;
38427;SDS011;24211;49.980;19.776;2023-05-10T12:44:37;3.60;;;1.63;;
38427;SDS011;24211;49.980;19.776;2023-05-10T12:47:06;4.18;;;1.60;;
38427;SDS011;24211;49.980;19.776;2023-05-10T12:49:34;2.78;;;1.40;;
38427;SDS011;24211;49.980;19.776;2023-05-10T12:52:01;3.45;;;1.55;;
38427;SDS011;24211;49.980;19.776;2023-05-10T12:54:29;5.32;;;1.77;;
38427;SDS011;24211;49.980;19.776;2023-05-10T12:56:56;3.80;;;1.50;;
38427;SDS011;24211;49.980;19.776;2023-05-10T12:59:23;2.90;;;1.50;;
38427;SDS011;24211;49.980;19.776;2023-05-10T13:01:50;3.38;;;1.50;;
38427;SDS011;24211;49.980;19.776;2023-05-10T13:04:18;2.83;;;1.50;;
38427;SDS011;24211;49.980;19.776;2023-05-10T13:06:45;3.83;;;1.55;;
38427;SDS011;24211;49.980;19.776;2023-05-10T13:09:13;3.97;;;1.60;;
38427;SDS011;24211;49.980;19.776;2023-05-10T13:11:40;2.85;;;1.40;;
38427;SDS011;24211;49.980;19.776;2023-05-10T13:14:08;2.58;;;1.35;;
38427;SDS011;24211;49.980;19.776;2023-05-10T13:16:35;2.30;;;1.30;;
38427;SDS011;24211;49.980;19.776;2023-05-10T13:19:03;2.60;;;1.48;;
38427;SDS011;24211;49.980;19.776;2023-05-10T13:21:30;3.00;;;1.35;;
38427;SDS011;24211;49.980;19.776;2023-05-10T13:23:58;3.67;;;1.50;;
38427;SDS011;24211;49.980;19.776;2023-05-10T13:26:26;3.45;;;1.50;;
38427;SDS011;24211;49.980;19.776;2023-05-10T13:28:54;4.35;;;1.60;;
38427;SDS011;24211;49.980;19.776;2023-05-10T13:31:22;4.15;;;1.80;;
38427;SDS011;24211;49.980;19.776;2023-05-10T13:33:49;3.88;;;1.80;;
38427;SDS011;24211;49.980;19.776;2023-05-10T13:36:17;3.35;;;1.77;;
38427;SDS011;24211;49.980;19.776;2023-05-10T13:38:44;6.00;;;1.90;;
38427;SDS011;24211;49.980;19.776;2023-05-10T13:41:12;5.10;;;1.80;;
38427;SDS011;24211;49.980;19.776;2023-05-10T13:43:39;3.97;;;1.48;;
38427;SDS011;24211;49.980;19.776;2023-05-10T13:46:06;3.97;;;1.63;;
38427;SDS011;24211;49.980;19.776;2023-05-10T13:48:34;3.20;;;1.30;;
38427;SDS011;24211;49.980;19.776;2023-05-10T13:51:04;4.00;;;1.67;;
38427;SDS011;24211;49.980;19.776;2023-05-10T13:53:32;4.32;;;1.60;;
38427;SDS011;24211;49.980;19.776;2023-05-10T13:59:04;3.83;;;1.52;;
38427;SDS011;24211;49.980;19.776;2023-05-10T14:01:31;4.13;;;1.50;;
38427;SDS011;24211;49.980;19.776;2023-05-10T14:03:59;3.05;;;1.30;;
38427;SDS011;24211;49.980;19.776;2023-05-10T14:06:28;3.30;;;1.50;;
38427;SDS011;24211;49.980;19.776;2023-05-10T14:08:55;5.60;;;1.73;;
38427;SDS011;24211;49.980;19.776;2023-05-10T14:11:22;6.90;;;1.90;;
38427;SDS011;24211;49.980;19.776;2023-05-10T14:13:50;3.33;;;1.77;;
38427;SDS011;24211;49.980;19.776;2023-05-10T14:16:17;6.43;;;1.90;;
38427;SDS011;24211;49.980;19.776;2023-05-10T14:18:46;3.40;;;1.80;;
38427;SDS011;24211;49.980;19.776;2023-05-10T14:21:14;6.00;;;2.00;;
38427;SDS011;24211;49.980;19.776;2023-05-10T14:23:42;4.05;;;1.70;;
38427;SDS011;24211;49.980;19.776;2023-05-10T14:26:09;3.97;;;1.73;;
38427;SDS011;24211;49.980;19.776;2023-05-10T14:28:36;3.90;;;2.00;;
38427;SDS011;24211;49.980;19.776;2023-05-10T14:31:04;3.50;;;1.70;;
38427;SDS011;24211;49.980;19.776;2023-05-10T14:33:32;4.35;;;1.95;;
38427;SDS011;24211;49.980;19.776;2023-05-10T14:35:59;4.53;;;1.77;;
38427;SDS011;24211;49.980;19.776;2023-05-10T14:38:27;3.00;;;1.67;;
38427;SDS011;24211;49.980;19.776;2023-05-10T14:40:55;6.07;;;1.50;;
38427;SDS011;24211;49.980;19.776;2023-05-10T14:43:23;6.82;;;1.85;;
38427;SDS011;24211;49.980;19.776;2023-05-10T14:45:51;3.38;;;1.55;;
38427;SDS011;24211;49.980;19.776;2023-05-10T14:48:18;6.00;;;1.98;;
38427;SDS011;24211;49.980;19.776;2023-05-10T14:50:47;4.78;;;1.92;;
38427;SDS011;24211;49.980;19.776;2023-05-10T14:53:34;3.53;;;1.60;;
38427;SDS011;24211;49.980;19.776;2023-05-10T14:56:02;2.90;;;1.60;;
38427;SDS011;24211;49.980;19.776;2023-05-10T14:58:29;4.68;;;1.63;;
38427;SDS011;24211;49.980;19.776;2023-05-10T15:00:59;5.15;;;1.70;;
38427;SDS011;24211;49.980;19.776;2023-05-10T15:03:30;3.78;;;1.50;;
38427;SDS011;24211;49.980;19.776;2023-05-10T15:05:57;4.05;;;1.80;;
38427;SDS011;24211;49.980;19.776;2023-05-10T15:08:25;6.10;;;1.85;;
38427;SDS011;24211;49.980;19.776;2023-05-10T15:10:52;3.95;;;1.90;;
38427;SDS011;24211;49.980;19.776;2023-05-10T15:13:22;6.05;;;1.77;;
38427;SDS011;24211;49.980;19.776;2023-05-10T15:15:49;6.35;;;1.83;;
38427;SDS011;24211;49.980;19.776;2023-05-10T15:18:17;3.85;;;1.92;;
38427;SDS011;24211;49.980;19.776;2023-05-10T15:20:44;3.95;;;1.70;;
38427;SDS011;24211;49.980;19.776;2023-05-10T15:23:11;4.15;;;1.60;;
38427;SDS011;24211;49.980;19.776;2023-05-10T15:25:39;3.60;;;1.88;;
38427;SDS011;24211;49.980;19.776;2023-05-10T15:28:06;3.85;;;1.70;;